createdAt,value
2023-05-10T00:01:52.295Z,15.73
2023-05-10T00:04:18.587Z,14.38
2023-05-10T00:06:44.929Z,16.25
2023-05-10T00:09:13.625Z,14.63
2023-05-10T00:11:39.855Z,14.52
2023-05-10T00:14:11.254Z,14.77
2023-05-10T00:16:37.806Z,15.10
2023-05-10T00:19:06.881Z,14.40
2023-05-10T00:21:36.018Z,14.57
2023-05-10T00:24:02.238Z,14.68
2023-05-10T00:26:30.385Z,16.90
2023-05-10T00:28:59.996Z,16.55
2023-05-10T00:31:26.284Z,16.15
2023-05-10T00:33:52.549Z,15.13
2023-05-10T00:36:18.804Z,16.90
2023-05-10T00:38:48.782Z,17.45
2023-05-10T00:41:16.226Z,16.65
2023-05-10T00:43:42.461Z,17.58
2023-05-10T00:46:08.851Z,18.98
2023-05-10T00:48:37.346Z,19.50
2023-05-10T00:51:05.120Z,19.63
2023-05-10T00:53:32.097Z,19.98
2023-05-10T00:55:58.399Z,18.58
2023-05-10T00:58:27.224Z,18.60
2023-05-10T01:00:53.593Z,18.88
2023-05-10T01:03:22.464Z,18.48
2023-05-10T01:05:49.957Z,18.23
2023-05-10T01:08:16.173Z,17.80
2023-05-10T01:10:43.582Z,19.42
2023-05-10T01:13:14.685Z,16.58
2023-05-10T01:15:43.727Z,16.98
2023-05-10T01:18:10.069Z,16.90
2023-05-10T01:20:46.918Z,15.15
2023-05-10T01:23:31.814Z,18.45
2023-05-10T01:26:20.327Z,15.75
2023-05-10T01:28:49.754Z,17.00
2023-05-10T01:31:48.523Z,16.23
2023-05-10T01:34:19.196Z,16.15
2023-05-10T01:37:01.214Z,16.15
2023-05-10T01:39:41.633Z,17.52
2023-05-10T01:42:11.509Z,15.95
2023-05-10T01:44:37.697Z,16.38
2023-05-10T01:47:10.546Z,17.02
2023-05-10T01:49:42.183Z,16.88
2023-05-10T01:52:11.818Z,17.33
2023-05-10T01:54:42.120Z,15.48
2023-05-10T01:57:09.939Z,16.40
2023-05-10T01:59:37.691Z,16.35
2023-05-10T02:02:07.781Z,18.70
2023-05-10T02:04:36.217Z,19.08
2023-05-10T02:07:02.898Z,19.38
2023-05-10T02:09:29.455Z,15.88
2023-05-10T02:11:59.426Z,18.15
2023-05-10T02:14:26.665Z,17.17
2023-05-10T02:16:53.873Z,18.25
2023-05-10T02:19:25.302Z,17.40
2023-05-10T02:21:54.329Z,16.92
2023-05-10T02:24:24.787Z,14.68
2023-05-10T02:29:22.689Z,17.10
2023-05-10T02:31:49.113Z,19.20
2023-05-10T02:34:18.189Z,17.63
2023-05-10T02:36:50.033Z,18.58
2023-05-10T02:39:17.160Z,16.15
2023-05-10T02:41:48.781Z,18.30
2023-05-10T02:44:19.413Z,19.23
2023-05-10T02:46:46.044Z,16.85
2023-05-10T02:49:13.443Z,15.48
2023-05-10T02:51:42.409Z,17.48
2023-05-10T02:54:14.476Z,17.02
2023-05-10T02:56:47.993Z,16.25
2023-05-10T02:59:14.325Z,19.23
2023-05-10T03:01:40.640Z,19.10
2023-05-10T03:04:10.810Z,22.55
2023-05-10T03:06:40.006Z,20.73
2023-05-10T03:09:06.665Z,20.42
2023-05-10T03:11:40.597Z,21.08
2023-05-10T03:14:26.955Z,21.13
2023-05-10T03:17:19.424Z,20.33
2023-05-10T03:19:50.505Z,17.60
2023-05-10T03:22:21.740Z,20.08
2023-05-10T03:24:50.292Z,19.50
2023-05-10T03:27:18.347Z,19.55
2023-05-10T03:29:49.545Z,19.48
2023-05-10T03:32:16.987Z,20.23
2023-05-10T03:34:43.720Z,18.92
2023-05-10T03:37:13.876Z,20.05
2023-05-10T03:39:40.126Z,19.95
2023-05-10T03:42:08.310Z,19.10
2023-05-10T03:44:35.965Z,20.00
2023-05-10T03:47:02.319Z,18.35
2023-05-10T03:49:32.928Z,19.63
2023-05-10T03:54:26.738Z,17.45
2023-05-10T03:56:54.404Z,17.25
2023-05-10T03:59:20.833Z,17.95
2023-05-10T04:01:47.282Z,15.63
2023-05-10T04:04:13.884Z,16.55
2023-05-10T04:06:44.734Z,16.65
2023-05-10T04:09:10.912Z,17.40
2023-05-10T04:11:37.177Z,17.67
2023-05-10T04:14:04.593Z,17.92
2023-05-10T04:16:30.878Z,16.58
2023-05-10T04:18:57.143Z,15.98
2023-05-10T04:21:23.582Z,18.45
2023-05-10T04:23:49.881Z,17.27
2023-05-10T04:26:19.980Z,18.33
2023-05-10T04:28:50.381Z,16.85
2023-05-10T04:33:45.735Z,16.95
2023-05-10T04:36:13.990Z,16.48
2023-05-10T04:38:40.448Z,16.92
2023-05-10T04:41:10.596Z,18.42
2023-05-10T04:43:37.423Z,19.08
2023-05-10T04:46:04.217Z,16.85
2023-05-10T04:48:30.577Z,17.05
2023-05-10T04:51:01.391Z,18.17
2023-05-10T04:53:28.954Z,17.48
2023-05-10T04:55:55.238Z,17.67
2023-05-10T04:58:21.849Z,18.30
2023-05-10T05:03:40.004Z,17.95
2023-05-10T05:06:06.494Z,21.70
2023-05-10T05:08:32.840Z,18.55
2023-05-10T05:11:00.102Z,19.58
2023-05-10T05:13:26.438Z,18.38
2023-05-10T05:16:05.509Z,18.25
2023-05-10T05:18:31.896Z,17.20
2023-05-10T05:20:58.444Z,19.08
2023-05-10T05:23:25.003Z,17.48
2023-05-10T05:25:56.775Z,20.33
2023-05-10T05:28:23.207Z,19.10
2023-05-10T05:30:53.560Z,19.65
2023-05-10T05:33:22.652Z,19.10
2023-05-10T05:35:51.548Z,19.40
2023-05-10T05:38:17.922Z,19.95
2023-05-10T05:40:44.201Z,18.98
2023-05-10T05:43:10.415Z,19.77
2023-05-10T05:45:44.117Z,18.75
2023-05-10T05:48:16.648Z,19.23
2023-05-10T05:50:42.992Z,20.27
2023-05-10T05:53:09.709Z,17.08
2023-05-10T05:55:35.931Z,19.45
2023-05-10T05:58:02.201Z,19.60
2023-05-10T06:00:28.626Z,19.08
2023-05-10T06:02:55.005Z,21.30
2023-05-10T06:05:21.471Z,19.52
2023-05-10T06:07:47.903Z,19.48
2023-05-10T06:10:14.253Z,18.75
2023-05-10T06:12:40.808Z,17.60
2023-05-10T06:15:12.785Z,17.02
2023-05-10T06:17:41.147Z,17.88
2023-05-10T06:20:10.287Z,15.75
2023-05-10T06:22:36.531Z,17.42
2023-05-10T06:25:03.973Z,16.65
2023-05-10T06:27:30.393Z,14.98
2023-05-10T06:30:11.798Z,18.38
2023-05-10T06:35:05.586Z,15.63
2023-05-10T06:37:31.791Z,16.98
2023-05-10T06:39:58.298Z,15.55
2023-05-10T06:42:26.890Z,16.13
2023-05-10T06:44:54.445Z,15.10
2023-05-10T06:47:20.733Z,15.02
2023-05-10T06:49:49.521Z,15.43
2023-05-10T06:52:15.928Z,13.85
2023-05-10T06:54:42.609Z,12.73
2023-05-10T06:57:16.127Z,11.55
2023-05-10T06:59:50.173Z,11.48
2023-05-10T07:02:16.556Z,10.75
2023-05-10T07:04:43.399Z,10.38
2023-05-10T07:07:09.744Z,8.85
2023-05-10T07:09:36.234Z,8.57
2023-05-10T07:12:02.435Z,7.35
2023-05-10T07:14:28.973Z,7.50
2023-05-10T07:16:57.957Z,6.97
2023-05-10T07:19:24.990Z,7.35
2023-05-10T07:21:51.309Z,6.13
2023-05-10T07:24:17.668Z,5.80
2023-05-10T07:26:47.651Z,5.47
2023-05-10T07:29:13.951Z,6.00
2023-05-10T07:31:42.511Z,6.65
2023-05-10T07:34:13.620Z,5.72
2023-05-10T07:36:39.862Z,5.20
2023-05-10T07:39:07.505Z,5.35
2023-05-10T07:41:36.760Z,5.55
2023-05-10T07:44:05.705Z,5.30
2023-05-10T07:46:34.333Z,6.20
2023-05-10T07:49:00.541Z,5.82
2023-05-10T07:51:26.767Z,5.95
2023-05-10T07:53:52.991Z,5.75
2023-05-10T07:56:25.459Z,5.55
2023-05-10T07:58:52.101Z,5.32
2023-05-10T08:01:18.672Z,5.57
2023-05-10T08:03:45.118Z,6.18
2023-05-10T08:06:12.345Z,4.85
2023-05-10T08:08:40.085Z,6.78
2023-05-10T08:11:06.269Z,5.15
2023-05-10T08:13:32.463Z,6.25
2023-05-10T08:15:58.916Z,5.80
2023-05-10T08:18:25.221Z,5.75
2023-05-10T08:20:53.970Z,6.20
2023-05-10T08:23:22.796Z,5.65
2023-05-10T08:25:49.070Z,5.63
2023-05-10T08:28:17.728Z,4.85
2023-05-10T08:30:43.990Z,4.75
2023-05-10T08:33:10.267Z,5.65
2023-05-10T08:35:36.541Z,4.68
2023-05-10T08:38:02.790Z,5.10
2023-05-10T08:40:29.073Z,4.93
2023-05-10T08:42:59.352Z,5.90
2023-05-10T08:45:26.306Z,5.25
2023-05-10T08:47:53.242Z,4.95
2023-05-10T08:50:23.479Z,5.03
2023-05-10T08:55:25.749Z,5.40
2023-05-10T08:57:52.034Z,5.10
2023-05-10T09:00:18.979Z,5.32
2023-05-10T09:02:46.052Z,5.00
2023-05-10T09:05:16.192Z,5.90
2023-05-10T09:07:43.111Z,5.60
2023-05-10T09:10:11.580Z,6.60
2023-05-10T09:12:38.070Z,6.43
2023-05-10T09:15:04.734Z,5.30
2023-05-10T09:17:31.151Z,5.10
2023-05-10T09:20:00.842Z,4.68
2023-05-10T09:22:28.299Z,5.20
2023-05-10T09:25:11.107Z,4.57
2023-05-10T09:27:38.887Z,4.32
2023-05-10T09:30:06.101Z,3.58
2023-05-10T09:32:43.519Z,3.40
2023-05-10T09:35:15.072Z,3.30
2023-05-10T09:37:42.064Z,2.22
2023-05-10T09:40:08.997Z,3.08
2023-05-10T09:42:35.840Z,3.55
2023-05-10T09:45:03.290Z,3.22
2023-05-10T09:47:29.818Z,3.67
2023-05-10T09:49:56.505Z,3.45
2023-05-10T09:52:22.931Z,3.17
2023-05-10T09:54:55.679Z,3.42
2023-05-10T10:00:04.856Z,3.55
2023-05-10T10:02:33.999Z,2.97
2023-05-10T10:07:45.822Z,2.53
2023-05-10T10:10:12.409Z,2.40
2023-05-10T10:12:44.179Z,3.20
2023-05-10T10:15:10.641Z,2.80
2023-05-10T10:17:37.594Z,2.97
2023-05-10T10:20:04.240Z,3.45
2023-05-10T10:22:30.414Z,3.25
2023-05-10T10:24:56.676Z,3.25
2023-05-10T10:27:30.011Z,3.45
2023-05-10T10:30:16.639Z,3.63
2023-05-10T10:33:10.134Z,3.13
2023-05-10T10:35:40.268Z,3.70
2023-05-10T11:05:27.027Z,4.00
2023-05-10T11:07:54.312Z,2.88
2023-05-10T11:10:22.778Z,3.90
2023-05-10T11:29:01.148Z,2.75
2023-05-10T11:31:27.809Z,2.85
2023-05-10T11:33:58.501Z,3.28
2023-05-10T11:36:24.815Z,2.83
2023-05-10T11:38:52.266Z,2.97
2023-05-10T11:41:20.080Z,2.72
2023-05-10T11:43:58.813Z,2.30
2023-05-10T11:46:26.221Z,2.35
2023-05-10T11:48:54.164Z,2.92
2023-05-10T11:51:34.658Z,2.40
2023-05-10T11:54:02.386Z,2.13
2023-05-10T11:56:29.600Z,2.13
2023-05-10T11:58:57.882Z,2.25
2023-05-10T12:01:25.348Z,1.90
2023-05-10T12:03:52.596Z,1.73
2023-05-10T12:06:22.881Z,1.70
2023-05-10T12:08:51.800Z,2.17
2023-05-10T12:11:18.029Z,1.98
2023-05-10T12:13:49.841Z,1.90
2023-05-10T12:16:26.431Z,2.40
2023-05-10T12:18:54.246Z,2.05
2023-05-10T12:21:24.377Z,2.22
2023-05-10T12:23:52.654Z,1.73
2023-05-10T12:26:19.763Z,1.80
2023-05-10T12:28:48.715Z,1.98
2023-05-10T12:31:18.826Z,1.63
2023-05-10T12:33:46.292Z,2.38
2023-05-10T12:36:17.847Z,2.00
2023-05-10T12:38:47.346Z,1.58
2023-05-10T12:41:16.327Z,1.20
2023-05-10T12:43:43.068Z,1.75
2023-05-10T12:46:10.179Z,1.58
2023-05-10T12:48:37.342Z,1.73
2023-05-10T12:51:04.339Z,1.90
2023-05-10T12:53:30.836Z,2.00
2023-05-10T12:55:57.220Z,1.88
2023-05-10T12:58:34.972Z,1.50
2023-05-10T13:01:02.499Z,2.65
2023-05-10T13:03:28.756Z,3.50
2023-05-10T13:05:57.867Z,3.20
2023-05-10T13:08:25.296Z,3.40
2023-05-10T13:10:51.770Z,3.38
2023-05-10T13:13:20.265Z,3.75
2023-05-10T13:15:46.461Z,3.38
2023-05-10T13:18:14.240Z,3.92
2023-05-10T13:20:43.474Z,3.20
2023-05-10T13:23:09.748Z,3.33
2023-05-10T13:25:36.033Z,2.55
2023-05-10T13:28:04.690Z,2.63
2023-05-10T13:30:32.176Z,2.72
2023-05-10T13:32:59.511Z,2.70
2023-05-10T13:35:26.918Z,3.47
2023-05-10T13:37:53.154Z,3.00
2023-05-10T13:40:21.153Z,2.55
2023-05-10T13:42:48.581Z,2.47
2023-05-10T13:45:16.347Z,2.80
2023-05-10T13:47:43.037Z,3.53
2023-05-10T13:50:09.620Z,3.00
2023-05-10T13:52:35.822Z,3.17
2023-05-10T13:55:02.016Z,2.90
2023-05-10T13:57:28.328Z,3.75
2023-05-10T13:59:55.874Z,3.13
2023-05-10T14:02:25.907Z,2.53
2023-05-10T14:04:52.214Z,2.55
2023-05-10T14:07:18.416Z,3.15
2023-05-10T14:09:52.113Z,3.05
2023-05-10T14:12:20.904Z,3.42
2023-05-10T14:14:47.104Z,3.30
2023-05-10T14:17:13.436Z,3.92
2023-05-10T14:19:39.656Z,4.18
2023-05-10T14:22:05.921Z,4.50
2023-05-10T14:24:32.133Z,3.97
2023-05-10T14:26:58.394Z,3.88
2023-05-10T14:29:24.840Z,5.22
2023-05-10T14:31:51.178Z,4.38
2023-05-10T14:34:17.446Z,4.35
2023-05-10T14:36:43.682Z,4.35
2023-05-10T14:39:09.862Z,3.58
2023-05-10T14:41:37.112Z,4.47
2023-05-10T14:44:06.318Z,5.75
2023-05-10T14:46:32.645Z,4.50
2023-05-10T14:48:58.970Z,4.18
2023-05-10T14:51:25.338Z,4.10
2023-05-10T14:53:51.557Z,5.32
2023-05-10T14:56:17.767Z,4.38
2023-05-10T14:58:44.046Z,4.22
2023-05-10T15:01:10.344Z,4.25
2023-05-10T15:03:36.852Z,3.95
2023-05-10T15:06:05.433Z,4.20
2023-05-10T15:08:31.630Z,3.95
2023-05-10T15:10:57.827Z,4.38
2023-05-10T15:13:24.072Z,3.85
2023-05-10T15:15:50.363Z,4.40
2023-05-10T15:18:16.654Z,3.88
2023-05-10T15:20:44.129Z,4.47
2023-05-10T15:23:10.385Z,4.05
2023-05-10T15:25:38.636Z,3.65
2023-05-10T15:28:04.900Z,3.83
2023-05-10T15:30:31.324Z,3.72
2023-05-10T15:33:05.042Z,3.67
2023-05-10T15:35:33.721Z,3.67
2023-05-10T15:37:59.964Z,3.80
2023-05-10T15:40:27.746Z,4.10
2023-05-10T15:42:54.034Z,4.18
2023-05-10T15:45:20.567Z,3.70
2023-05-10T15:47:46.787Z,3.60
2023-05-10T15:50:15.659Z,3.40
2023-05-10T15:52:41.914Z,3.72
2023-05-10T15:55:08.855Z,3.70
2023-05-10T15:57:36.761Z,3.45
2023-05-10T16:00:05.935Z,3.47
2023-05-10T16:02:34.677Z,3.30
2023-05-10T16:05:03.883Z,3.42
2023-05-10T16:07:30.117Z,3.35
2023-05-10T16:09:56.835Z,2.90
2023-05-10T16:12:23.163Z,4.03
2023-05-10T16:14:50.664Z,3.20
2023-05-10T16:17:17.089Z,3.55
2023-05-10T16:19:43.479Z,3.45
2023-05-10T16:22:19.385Z,3.13
2023-05-10T16:24:45.708Z,4.25
2023-05-10T16:27:12.053Z,3.53
2023-05-10T16:29:38.284Z,3.60
2023-05-10T16:32:07.525Z,3.25
2023-05-10T16:34:33.990Z,4.10
2023-05-10T16:37:00.469Z,3.20
2023-05-10T16:39:26.846Z,2.95
2023-05-10T16:41:53.310Z,2.90
2023-05-10T16:44:25.934Z,3.42
2023-05-10T16:46:52.467Z,3.25
2023-05-10T16:49:18.832Z,2.50
2023-05-10T16:51:46.051Z,2.72
2023-05-10T16:54:13.844Z,2.10
2023-05-10T16:56:42.427Z,2.13
2023-05-10T16:59:11.229Z,2.53
2023-05-10T17:01:39.857Z,2.22
2023-05-10T17:04:06.184Z,1.88
2023-05-10T17:06:32.491Z,1.75
2023-05-10T17:09:03.697Z,1.75
2023-05-10T17:11:30.049Z,2.22
2023-05-10T17:13:56.400Z,1.58
2023-05-10T17:16:25.799Z,1.98
2023-05-10T17:18:53.321Z,1.80
2023-05-10T17:21:22.030Z,1.88
2023-05-10T17:23:48.442Z,1.55
2023-05-10T17:26:14.669Z,2.08
2023-05-10T17:28:40.908Z,2.05
2023-05-10T17:31:07.281Z,2.10
2023-05-10T17:33:34.840Z,2.10
2023-05-10T17:36:03.406Z,18.98
2023-05-10T17:38:29.601Z,2.30
2023-05-10T17:40:57.036Z,1.80
2023-05-10T17:43:26.222Z,2.28
2023-05-10T17:45:53.210Z,2.60
2023-05-10T17:48:24.480Z,2.90
2023-05-10T17:50:50.957Z,2.92
2023-05-10T17:53:17.749Z,3.03
2023-05-10T17:55:44.005Z,2.83
2023-05-10T17:58:12.237Z,2.50
2023-05-10T18:00:38.855Z,2.97
2023-05-10T18:03:07.053Z,2.40
2023-05-10T18:05:42.483Z,2.90
2023-05-10T18:08:08.833Z,2.83
2023-05-10T18:10:36.017Z,2.78
2023-05-10T18:13:08.552Z,2.72
2023-05-10T18:15:35.097Z,3.25
2023-05-10T18:18:01.974Z,3.53
2023-05-10T18:20:28.461Z,2.92
2023-05-10T18:22:56.469Z,2.88
2023-05-10T18:25:24.235Z,3.72
2023-05-10T18:27:50.476Z,3.28
2023-05-10T18:30:21.609Z,3.75
2023-05-10T18:32:48.155Z,3.72
2023-05-10T18:35:14.719Z,3.58
2023-05-10T18:37:41.089Z,2.63
2023-05-10T18:40:09.198Z,2.88
2023-05-10T18:42:35.565Z,3.45
2023-05-10T18:45:01.824Z,3.75
2023-05-10T18:47:28.235Z,3.47
2023-05-10T18:49:56.755Z,2.80
2023-05-10T18:52:23.051Z,2.95
2023-05-10T18:54:50.664Z,3.47
2023-05-10T18:57:16.877Z,2.83
2023-05-10T18:59:43.156Z,3.63
2023-05-10T19:02:09.494Z,4.00
2023-05-10T19:04:35.927Z,3.38
2023-05-10T19:07:02.471Z,3.85
2023-05-10T19:09:31.930Z,3.58
2023-05-10T19:11:58.290Z,2.75
2023-05-10T19:14:24.605Z,3.20
2023-05-10T19:16:52.087Z,3.60
2023-05-10T19:19:20.130Z,3.22
2023-05-10T19:21:47.234Z,3.63
2023-05-10T19:24:13.514Z,3.45
2023-05-10T19:26:39.785Z,3.92
2023-05-10T19:29:07.221Z,4.00
2023-05-10T19:31:33.468Z,4.57
2023-05-10T19:34:00.893Z,5.22
2023-05-10T19:36:27.452Z,3.72
2023-05-10T19:38:54.177Z,3.58
2023-05-10T19:41:20.569Z,4.93
2023-05-10T19:43:46.824Z,4.13
2023-05-10T19:46:14.153Z,4.15
2023-05-10T19:48:40.501Z,4.55
2023-05-10T19:51:09.433Z,4.30
2023-05-10T19:53:36.539Z,5.03
2023-05-10T19:56:04.187Z,5.35
2023-05-10T19:58:30.546Z,5.32
2023-05-10T20:00:56.839Z,5.30
2023-05-10T20:03:23.177Z,5.13
2023-05-10T20:05:55.403Z,4.85
2023-05-10T20:08:21.787Z,4.97
2023-05-10T20:10:49.449Z,5.20
2023-05-10T20:13:15.729Z,4.50
2023-05-10T20:15:41.983Z,6.30
2023-05-10T20:18:08.216Z,5.50
2023-05-10T20:20:34.523Z,5.07
2023-05-10T20:23:00.806Z,5.13
2023-05-10T20:25:27.146Z,5.22
2023-05-10T20:27:54.417Z,5.30
2023-05-10T20:30:24.056Z,5.78
2023-05-10T20:32:50.324Z,5.63
2023-05-10T20:35:17.919Z,5.82
2023-05-10T20:37:44.222Z,6.13
2023-05-10T20:40:10.601Z,5.95
2023-05-10T20:42:39.379Z,7.03
2023-05-10T20:45:06.013Z,6.47
2023-05-10T20:47:37.238Z,6.30
2023-05-10T20:50:06.423Z,6.13
2023-05-10T20:52:32.702Z,5.07
2023-05-10T20:54:59.015Z,5.55
2023-05-10T20:57:27.317Z,6.00
2023-05-10T20:59:53.600Z,6.00
2023-05-10T21:02:20.012Z,5.10
2023-05-10T21:04:46.233Z,5.78
2023-05-10T21:07:12.510Z,5.78
2023-05-10T21:09:38.745Z,5.10
2023-05-10T21:12:05.699Z,5.43
2023-05-10T21:14:34.911Z,6.18
2023-05-10T21:17:01.141Z,6.10
2023-05-10T21:19:29.405Z,5.10
2023-05-10T21:21:56.998Z,5.60
2023-05-10T21:24:23.448Z,6.03
2023-05-10T21:26:49.823Z,7.00
2023-05-10T21:29:18.701Z,6.13
2023-05-10T21:31:46.767Z,5.20
2023-05-10T21:34:12.981Z,5.32
2023-05-10T21:36:39.346Z,5.63
2023-05-10T21:39:05.596Z,5.15
2023-05-10T21:41:31.800Z,6.32
2023-05-10T21:43:57.982Z,6.18
2023-05-10T21:46:24.259Z,5.72
2023-05-10T21:48:58.871Z,6.00
2023-05-10T21:51:25.111Z,6.30
2023-05-10T21:53:51.310Z,5.25
2023-05-10T21:56:17.675Z,6.30
2023-05-10T21:58:43.894Z,5.95
2023-05-10T22:01:10.198Z,6.07
2023-05-10T22:03:36.487Z,5.78
2023-05-10T22:06:04.998Z,6.15
2023-05-10T22:08:31.263Z,5.68
2023-05-10T22:10:57.492Z,6.85
2023-05-10T22:13:24.314Z,6.05
2023-05-10T22:15:56.044Z,6.35
2023-05-10T22:18:26.555Z,6.15
2023-05-10T22:20:52.825Z,6.03
2023-05-10T22:23:20.297Z,5.57
2023-05-10T22:25:46.561Z,5.03
2023-05-10T22:28:12.852Z,5.93
2023-05-10T22:30:39.116Z,5.50
2023-05-10T22:33:05.767Z,6.97
2023-05-10T22:35:33.206Z,6.43
2023-05-10T22:37:59.483Z,6.72
2023-05-10T22:40:28.516Z,7.18
2023-05-10T22:42:57.296Z,6.88
2023-05-10T22:45:23.549Z,7.32
2023-05-10T22:47:49.818Z,6.32
2023-05-10T22:50:19.345Z,6.40
2023-05-10T22:52:48.389Z,7.45
2023-05-10T22:55:14.668Z,7.35
2023-05-10T22:57:46.664Z,6.65
2023-05-10T23:00:13.144Z,6.97
2023-05-10T23:02:47.949Z,7.22
2023-05-10T23:05:14.298Z,6.15
2023-05-10T23:07:40.619Z,6.43
2023-05-10T23:10:07.120Z,5.93
2023-05-10T23:12:33.365Z,7.38
2023-05-10T23:14:59.708Z,6.55
2023-05-10T23:17:25.961Z,6.85
2023-05-10T23:19:52.164Z,7.15
2023-05-10T23:22:18.384Z,6.60
2023-05-10T23:24:44.652Z,7.22
2023-05-10T23:27:10.848Z,6.78
2023-05-10T23:29:44.270Z,7.25
2023-05-10T23:32:10.662Z,8.85
2023-05-10T23:34:36.998Z,6.70
2023-05-10T23:37:06.219Z,7.47
2023-05-10T23:39:32.408Z,7.57
2023-05-10T23:42:00.059Z,7.13
2023-05-10T23:44:26.434Z,7.82
2023-05-10T23:46:52.661Z,8.43
2023-05-10T23:49:23.523Z,7.75
2023-05-10T23:51:52.016Z,7.45
2023-05-10T23:54:18.471Z,9.02
2023-05-10T23:56:44.799Z,8.65
2023-05-10T23:59:10.998Z,7.32
